Ulmodrome de Limoux

FR-0329 · Occitanie, 法国

罗盘
风向 的 风向 320°
风: 5 kt, 2 beaufort

添加一条跑道以查看侧风和逆风信息。

添置 跑道
0 1.000 2.000 3.000 4.000 5.000
SCT 3.800 ft
METAR LFBO 030200Z AUTO 32005KT 9999 SCT038 15/13 Q1025 TEMPO 3000 BR

METAR Ulmodrome de Limoux - FR-0329

Ulmodrome de Limoux是Limoux,法国中的小机场。 该领域的国际民航组织标志是FR-0329.

这份报告是针对2022年10月3日 04:00, 当地时间在Toulouse-Blagnac Airport进行的。

机场观察

风向为320°,速度为5 kt。

可见度为10 km 或者更多。

有疏云,零星散落的云朵在3.800 ft的高度。 没有观察到天花板。

温度和风寒是15 °C。 露点为13 °C,相对湿度为88%。 海平面上的气压为1025 hPa (QNH)。

发展趋势

  • 暂时的

    可变方向的风很小或没有。 可见性变为3 km。 重大天气:薄雾。

白天

今天,太阳从07:50升起,在19:29降落。 这适用于Ulmodrome de Limoux,世界夏令时可能有所不同。 当地时间与世界标准时间之间的时差为+2 小时。 夏令时目前正在进行中。

公司介绍

我们没有关于这个机场的公司信息。

体会

到Vliegles.nl去找飞行课程,跳伞和其他飞行体验。 浏览页面,了解Ulmodrome de Limoux附近所有可用的活动。 你也可以使用搜索功能来寻找你所在地附近的特定飞行课程、跳伞或其他飞行体验。

乌云

3.800 ft SCT 疏云,零星散落的云朵

温度 & 天气

温度 15 °C
露点 13 °C
相对湿度 88%
Kp-index 3 (0-9)

白天

日出
07:54 (3h 44m)
中午
13:43
日落
19:32

小工具

你想在你的网站上有一个关于Ulmodrome de Limoux的当前航空天气(METAR)的小部件吗?

</> 显示HTML代码

我们和第三方通过cookies跟踪您在我们网站上的上网行为。如果您继续,我们认为您同意我们的cookie政策。 了解更多